createdAt,value
2023-03-27T00:00:59.987Z,4.97
2023-03-27T00:02:00.024Z,4.97
2023-03-27T00:03:00.034Z,4.91
2023-03-27T00:04:00.044Z,4.90
2023-03-27T00:04:59.996Z,4.88
2023-03-27T00:05:59.957Z,4.84
2023-03-27T00:06:59.956Z,4.88
2023-03-27T00:07:59.933Z,4.84
2023-03-27T00:08:59.890Z,4.84
2023-03-27T00:09:59.875Z,4.84
2023-03-27T00:10:59.910Z,4.79
2023-03-27T00:11:59.909Z,4.79
2023-03-27T00:12:59.845Z,4.75
2023-03-27T00:13:59.842Z,4.79
2023-03-27T00:14:59.843Z,4.80
2023-03-27T00:15:59.802Z,4.83
2023-03-27T00:16:59.902Z,4.83
2023-03-27T00:17:59.825Z,4.77
2023-03-27T00:18:59.876Z,4.77
2023-03-27T00:19:59.761Z,4.74
2023-03-27T00:20:59.768Z,4.74
2023-03-27T00:21:59.757Z,4.72
2023-03-27T00:23:00.312Z,4.71
2023-03-27T00:23:59.726Z,4.69
2023-03-27T00:24:59.816Z,4.67
2023-03-27T00:25:59.690Z,4.67
2023-03-27T00:26:59.675Z,4.64
2023-03-27T00:27:59.672Z,4.64
2023-03-27T00:28:59.678Z,4.62
2023-03-27T00:29:59.634Z,4.62
2023-03-27T00:30:59.940Z,4.61
2023-03-27T00:31:59.640Z,4.57
2023-03-27T00:32:59.616Z,4.54
2023-03-27T00:33:59.599Z,4.56
2023-03-27T00:34:59.585Z,4.53
2023-03-27T00:35:59.604Z,4.54
2023-03-27T00:36:59.754Z,4.53
2023-03-27T00:37:59.541Z,4.53
2023-03-27T00:38:59.523Z,4.53
2023-03-27T00:39:59.538Z,4.50
2023-03-27T00:41:00.007Z,4.50
2023-03-27T00:41:59.491Z,4.51
2023-03-27T00:42:59.472Z,4.50
2023-03-27T00:43:59.579Z,4.50
2023-03-27T00:44:59.489Z,4.47
2023-03-27T00:45:59.513Z,4.46
2023-03-27T00:46:59.455Z,4.43
2023-03-27T00:47:59.518Z,4.44
2023-03-27T00:48:59.414Z,4.44
2023-03-27T00:49:59.376Z,4.43
2023-03-27T00:50:59.386Z,4.46
2023-03-27T00:51:59.352Z,4.47
2023-03-27T00:52:59.335Z,4.44
2023-03-27T00:53:59.376Z,4.44
2023-03-27T00:54:59.298Z,4.47
2023-03-27T00:55:59.327Z,4.43
2023-03-27T00:56:59.357Z,4.42
2023-03-27T00:57:59.332Z,4.42
2023-03-27T00:58:59.268Z,4.43
2023-03-27T00:59:59.251Z,4.44
2023-03-27T01:00:59.364Z,4.44
2023-03-27T01:01:59.286Z,4.46
2023-03-27T01:03:01.081Z,4.44
2023-03-27T01:03:59.250Z,4.42
2023-03-27T01:04:59.209Z,4.39
2023-03-27T01:05:59.207Z,4.35
2023-03-27T01:06:59.241Z,4.35
2023-03-27T01:08:00.786Z,4.35
2023-03-27T01:08:59.132Z,4.32
2023-03-27T01:09:59.134Z,4.34
2023-03-27T01:10:59.128Z,4.32
2023-03-27T01:11:59.103Z,4.32
2023-03-27T01:12:59.080Z,4.32
2023-03-27T01:13:59.063Z,4.34
2023-03-27T01:14:59.079Z,4.32
2023-03-27T01:15:59.123Z,4.26
2023-03-27T01:16:59.039Z,4.28
2023-03-27T01:17:59.099Z,4.25
2023-03-27T01:18:59.010Z,4.25
2023-03-27T01:19:58.998Z,4.20
2023-03-27T01:20:59.730Z,4.13
2023-03-27T01:21:59.009Z,4.11
2023-03-27T01:22:58.963Z,4.07
2023-03-27T01:24:00.755Z,4.07
2023-03-27T01:24:58.920Z,4.07
2023-03-27T01:25:58.903Z,4.04
2023-03-27T01:26:58.956Z,4.04
2023-03-27T01:27:58.889Z,4.07
2023-03-27T01:28:58.850Z,4.06
2023-03-27T01:29:58.862Z,4.02
2023-03-27T01:30:59.160Z,4.04
2023-03-27T01:31:58.860Z,4.00
2023-03-27T01:32:58.879Z,3.98
2023-03-27T01:33:58.852Z,3.96
2023-03-27T01:35:01.175Z,3.93
2023-03-27T01:35:58.833Z,3.90
2023-03-27T01:36:58.828Z,3.88
2023-03-27T01:37:58.834Z,3.88
2023-03-27T01:38:58.848Z,3.80
2023-03-27T01:39:58.717Z,3.80
2023-03-27T01:40:58.829Z,3.80
2023-03-27T01:41:58.740Z,3.81
2023-03-27T01:42:58.718Z,3.86
2023-03-27T01:43:58.673Z,3.84
2023-03-27T01:44:58.709Z,3.86
2023-03-27T01:45:58.658Z,3.86
2023-03-27T01:46:58.651Z,3.86
2023-03-27T01:47:58.715Z,3.84
2023-03-27T01:48:58.624Z,3.86
2023-03-27T01:49:58.643Z,3.88
2023-03-27T01:50:58.810Z,3.88
2023-03-27T01:51:58.597Z,3.84
2023-03-27T01:52:58.592Z,3.82
2023-03-27T01:53:58.593Z,3.82
2023-03-27T01:54:58.568Z,3.80
2023-03-27T01:55:58.571Z,3.78
2023-03-27T01:56:58.544Z,3.80
2023-03-27T01:57:58.544Z,3.80
2023-03-27T01:58:58.488Z,3.82
2023-03-27T01:59:58.556Z,3.80
2023-03-27T02:00:59.484Z,3.77
2023-03-27T02:01:58.476Z,3.77
2023-03-27T02:02:58.537Z,3.77
2023-03-27T02:03:58.443Z,3.75
2023-03-27T02:04:58.467Z,3.75
2023-03-27T02:05:58.513Z,3.75
2023-03-27T02:06:58.412Z,3.77
2023-03-27T02:07:58.380Z,3.78
2023-03-27T02:08:58.393Z,3.78
2023-03-27T02:09:58.329Z,3.78
2023-03-27T02:10:58.652Z,3.80
2023-03-27T02:11:58.345Z,3.75
2023-03-27T02:12:58.296Z,3.75
2023-03-27T02:13:58.283Z,3.72
2023-03-27T02:15:23.949Z,3.71
2023-03-27T02:15:59.339Z,3.71
2023-03-27T02:16:58.242Z,3.71
2023-03-27T02:17:58.278Z,3.72
2023-03-27T02:18:58.247Z,3.72
2023-03-27T02:19:58.204Z,3.70
2023-03-27T02:20:58.341Z,3.67
2023-03-27T02:21:58.165Z,3.68
2023-03-27T02:22:58.237Z,3.64
2023-03-27T02:23:58.201Z,3.67
2023-03-27T02:24:58.161Z,3.70
2023-03-27T02:25:58.155Z,3.68
2023-03-27T02:26:58.137Z,3.64
2023-03-27T02:27:58.141Z,3.60
2023-03-27T02:28:58.110Z,3.60
2023-03-27T02:29:58.092Z,3.62
2023-03-27T02:31:07.029Z,3.62
2023-03-27T02:31:59.088Z,3.59
2023-03-27T02:32:58.110Z,3.53
2023-03-27T02:33:58.087Z,3.53
2023-03-27T02:34:58.025Z,3.50
2023-03-27T02:35:58.050Z,3.52
2023-03-27T02:36:58.005Z,3.52
2023-03-27T02:37:58.020Z,3.52
2023-03-27T02:38:58.001Z,3.46
2023-03-27T02:39:57.980Z,3.44
2023-03-27T02:40:58.064Z,3.42
2023-03-27T02:41:57.987Z,3.45
2023-03-27T02:42:57.959Z,3.50
2023-03-27T02:43:57.925Z,3.41
2023-03-27T02:44:57.893Z,3.41
2023-03-27T02:45:57.935Z,3.37
2023-03-27T02:46:57.857Z,3.37
2023-03-27T02:47:57.930Z,3.37
2023-03-27T02:48:57.855Z,3.35
2023-03-27T02:49:57.830Z,3.33
2023-03-27T02:50:58.137Z,3.30
2023-03-27T02:51:57.810Z,3.30
2023-03-27T02:52:57.828Z,3.30
2023-03-27T02:53:57.815Z,3.30
2023-03-27T02:54:57.763Z,3.26
2023-03-27T02:55:57.755Z,3.25
2023-03-27T02:56:57.765Z,3.23
2023-03-27T02:57:57.766Z,3.19
2023-03-27T02:58:57.761Z,3.12
2023-03-27T02:59:57.773Z,3.13
2023-03-27T03:00:57.901Z,3.10
2023-03-27T03:01:57.698Z,3.13
2023-03-27T03:02:57.732Z,3.12
2023-03-27T03:03:57.710Z,3.15
2023-03-27T03:04:57.630Z,3.13
2023-03-27T03:05:57.638Z,3.13
2023-03-27T03:06:57.620Z,3.07
2023-03-27T03:07:57.648Z,3.05
2023-03-27T03:08:57.591Z,3.07
2023-03-27T03:09:57.598Z,3.07
2023-03-27T03:10:57.742Z,3.10
2023-03-27T03:11:57.558Z,3.08
2023-03-27T03:12:57.600Z,3.10
2023-03-27T03:13:57.555Z,3.10
2023-03-27T03:14:57.522Z,3.10
2023-03-27T03:15:57.542Z,3.12
2023-03-27T03:16:57.572Z,3.10
2023-03-27T03:17:57.515Z,3.08
2023-03-27T03:18:57.486Z,3.02
2023-03-27T03:19:57.462Z,3.01
2023-03-27T03:20:57.614Z,2.99
2023-03-27T03:21:57.462Z,2.95
2023-03-27T03:22:57.452Z,2.94
2023-03-27T03:23:58.914Z,2.92
2023-03-27T03:24:57.485Z,2.89
2023-03-27T03:25:57.402Z,2.89
2023-03-27T03:26:57.363Z,2.87
2023-03-27T03:27:57.373Z,2.84
2023-03-27T03:28:59.739Z,2.86
2023-03-27T03:29:57.351Z,2.87
2023-03-27T03:30:57.541Z,2.87
2023-03-27T03:31:57.319Z,2.87
2023-03-27T03:32:57.317Z,2.89
2023-03-27T03:33:57.314Z,2.90
2023-03-27T03:34:57.265Z,2.87
2023-03-27T03:35:57.335Z,2.87
2023-03-27T03:36:57.513Z,2.86
2023-03-27T03:37:57.271Z,2.86
2023-03-27T03:38:57.246Z,2.83
2023-03-27T03:39:57.201Z,2.84
2023-03-27T03:40:57.408Z,2.83
2023-03-27T03:41:57.213Z,2.83
2023-03-27T03:42:57.195Z,2.86
2023-03-27T03:43:57.142Z,2.80
2023-03-27T03:44:57.143Z,2.81
2023-03-27T03:45:57.168Z,2.79
2023-03-27T03:46:57.147Z,2.79
2023-03-27T03:47:57.195Z,2.79
2023-03-27T03:48:58.978Z,2.76
2023-03-27T03:49:57.100Z,2.74
2023-03-27T03:50:57.465Z,2.74
2023-03-27T03:52:03.825Z,2.73
2023-03-27T03:52:58.060Z,2.73
2023-03-27T03:53:57.037Z,2.69
2023-03-27T03:54:57.019Z,2.68
2023-03-27T03:55:57.032Z,2.68
2023-03-27T03:56:57.050Z,2.68
2023-03-27T03:57:56.975Z,2.69
2023-03-27T03:58:56.946Z,2.69
2023-03-27T03:59:56.956Z,2.68
2023-03-27T04:00:57.279Z,2.66
2023-03-27T04:01:56.969Z,2.66
2023-03-27T04:02:57.155Z,2.65
2023-03-27T04:03:56.954Z,2.66
2023-03-27T04:04:56.877Z,2.66
2023-03-27T04:05:56.935Z,2.66
2023-03-27T04:06:56.858Z,2.66
2023-03-27T04:07:56.891Z,2.63
2023-03-27T04:08:56.818Z,2.63
2023-03-27T04:09:56.807Z,2.62
2023-03-27T04:10:57.038Z,2.61
2023-03-27T04:11:56.813Z,2.59
2023-03-27T04:12:56.788Z,2.56
2023-03-27T04:14:03.778Z,2.58
2023-03-27T04:14:56.746Z,2.55
2023-03-27T04:15:56.809Z,2.55
2023-03-27T04:16:56.719Z,2.55
2023-03-27T04:17:56.797Z,2.55
2023-03-27T04:18:56.764Z,2.53
2023-03-27T04:19:56.665Z,2.53
2023-03-27T04:20:56.825Z,2.53
2023-03-27T04:21:56.662Z,2.51
2023-03-27T04:22:56.616Z,2.51
2023-03-27T04:23:56.626Z,2.55
2023-03-27T04:24:56.601Z,2.51
2023-03-27T04:25:56.634Z,2.51
2023-03-27T04:26:56.603Z,2.51
2023-03-27T04:27:56.599Z,2.48
2023-03-27T04:28:56.563Z,2.48
2023-03-27T04:29:56.546Z,2.48
2023-03-27T04:30:56.693Z,2.47
2023-03-27T04:31:56.534Z,2.50
2023-03-27T04:32:56.516Z,2.47
2023-03-27T04:33:56.545Z,2.45
2023-03-27T04:34:56.480Z,2.47
2023-03-27T04:36:05.991Z,2.47
2023-03-27T04:36:57.536Z,2.45
2023-03-27T04:37:56.478Z,2.45
2023-03-27T04:38:56.443Z,2.45
2023-03-27T04:39:56.456Z,2.45
2023-03-27T04:40:56.644Z,2.44
2023-03-27T04:41:56.443Z,2.45
2023-03-27T04:42:56.427Z,2.43
2023-03-27T04:43:56.384Z,2.43
2023-03-27T04:44:56.390Z,2.43
2023-03-27T04:45:56.357Z,2.40
2023-03-27T04:46:56.485Z,2.40
2023-03-27T04:47:56.427Z,2.41
2023-03-27T04:48:56.337Z,2.41
2023-03-27T04:49:56.316Z,2.38
2023-03-27T04:50:56.547Z,2.38
2023-03-27T04:51:56.326Z,2.36
2023-03-27T04:52:56.274Z,2.33
2023-03-27T04:53:56.302Z,2.33
2023-03-27T04:54:56.237Z,2.30
2023-03-27T04:55:56.218Z,2.32
2023-03-27T04:56:56.246Z,2.29
2023-03-27T04:57:56.191Z,2.26
2023-03-27T04:58:56.210Z,2.25
2023-03-27T04:59:56.186Z,2.25
2023-03-27T05:00:56.702Z,2.25
2023-03-27T05:01:56.147Z,2.25
2023-03-27T05:02:56.297Z,2.25
2023-03-27T05:03:56.107Z,2.25
2023-03-27T05:04:56.111Z,2.25
2023-03-27T05:05:56.152Z,2.23
2023-03-27T05:06:56.086Z,2.25
2023-03-27T05:07:56.055Z,2.23
2023-03-27T05:08:56.079Z,2.26
2023-03-27T05:09:56.038Z,2.26
2023-03-27T05:10:56.168Z,2.25
2023-03-27T05:11:56.007Z,2.23
2023-03-27T05:12:58.312Z,2.25
2023-03-27T05:13:55.992Z,2.23
2023-03-27T05:14:56.501Z,2.25
2023-03-27T05:15:55.989Z,2.25
2023-03-27T05:16:55.961Z,2.26
2023-03-27T05:17:56.027Z,2.22
2023-03-27T05:18:55.935Z,2.20
2023-03-27T05:19:55.926Z,2.18
2023-03-27T05:20:56.069Z,2.15
2023-03-27T05:21:55.884Z,2.15
2023-03-27T05:22:55.883Z,2.18
2023-03-27T05:23:55.854Z,2.19
2023-03-27T05:24:55.876Z,2.19
2023-03-27T05:25:59.723Z,2.20
2023-03-27T05:26:56.820Z,2.20
2023-03-27T05:27:55.898Z,2.22
2023-03-27T05:28:55.813Z,2.22
2023-03-27T05:29:55.772Z,2.20
2023-03-27T05:30:56.130Z,2.19
2023-03-27T05:31:55.750Z,2.19
2023-03-27T05:32:55.813Z,2.22
2023-03-27T05:33:55.750Z,2.19
2023-03-27T05:34:55.728Z,2.20
2023-03-27T05:35:55.738Z,2.23
2023-03-27T05:36:55.712Z,2.23
2023-03-27T05:37:55.707Z,2.23
2023-03-27T05:38:55.719Z,2.25
2023-03-27T05:39:55.669Z,2.26
2023-03-27T05:40:55.928Z,2.32
2023-03-27T05:41:55.638Z,2.37
2023-03-27T05:42:55.621Z,2.40
2023-03-27T05:43:55.637Z,2.41
2023-03-27T05:44:55.629Z,2.40
2023-03-27T05:45:55.684Z,2.40
2023-03-27T05:46:55.594Z,2.40
2023-03-27T05:47:55.624Z,2.41
2023-03-27T05:48:55.543Z,2.40
2023-03-27T05:49:55.521Z,2.37
2023-03-27T05:50:55.712Z,2.37
2023-03-27T05:51:55.542Z,2.37
2023-03-27T05:52:55.509Z,2.38
2023-03-27T05:53:55.481Z,2.44
2023-03-27T05:54:55.480Z,2.38
2023-03-27T05:56:03.143Z,2.40
2023-03-27T05:56:56.498Z,2.43
2023-03-27T05:57:55.425Z,2.50
2023-03-27T05:58:55.415Z,2.56
2023-03-27T05:59:55.391Z,2.56
2023-03-27T06:00:55.618Z,2.55
2023-03-27T06:01:55.412Z,2.58
2023-03-27T06:02:55.441Z,2.61
2023-03-27T06:03:55.489Z,2.66
2023-03-27T06:04:55.346Z,2.68
2023-03-27T06:05:55.339Z,2.73
2023-03-27T06:06:55.349Z,2.74
2023-03-27T06:07:55.304Z,2.74
2023-03-27T06:08:55.288Z,2.76
2023-03-27T06:09:55.412Z,2.77
2023-03-27T06:10:55.575Z,2.77
2023-03-27T06:11:55.276Z,2.79
2023-03-27T06:12:55.249Z,2.76
2023-03-27T06:13:55.815Z,2.76
2023-03-27T06:14:55.235Z,2.80
2023-03-27T06:15:55.469Z,2.87
2023-03-27T06:16:55.241Z,2.89
2023-03-27T06:17:55.212Z,2.89
2023-03-27T06:18:55.227Z,2.86
2023-03-27T06:19:55.316Z,2.83
2023-03-27T06:20:55.349Z,2.89
2023-03-27T06:21:55.139Z,2.95
2023-03-27T06:22:55.137Z,3.02
2023-03-27T06:23:55.149Z,3.04
2023-03-27T06:24:55.284Z,3.04
2023-03-27T06:25:55.388Z,3.04
2023-03-27T06:26:55.985Z,3.07
2023-03-27T06:27:55.036Z,3.10
2023-03-27T06:28:55.029Z,3.13
2023-03-27T06:29:55.013Z,3.13
2023-03-27T06:30:55.105Z,3.15
2023-03-27T06:31:55.067Z,3.12
2023-03-27T06:32:55.026Z,3.17
2023-03-27T06:33:54.983Z,3.17
2023-03-27T06:34:54.971Z,3.20
2023-03-27T06:35:55.329Z,3.23
2023-03-27T06:36:54.936Z,3.25
2023-03-27T06:37:54.921Z,3.30
2023-03-27T06:38:54.923Z,3.39
2023-03-27T06:39:54.930Z,3.53
2023-03-27T06:40:55.075Z,3.56
2023-03-27T06:41:54.876Z,3.46
2023-03-27T06:42:54.860Z,3.52
2023-03-27T06:43:54.848Z,3.60
2023-03-27T06:44:54.857Z,3.67
2023-03-27T06:45:55.020Z,3.70
2023-03-27T06:46:54.856Z,3.63
2023-03-27T06:47:57.752Z,3.52
2023-03-27T06:48:55.914Z,3.41
2023-03-27T06:49:54.766Z,3.37
2023-03-27T06:50:54.806Z,3.44
2023-03-27T06:51:54.795Z,3.35
2023-03-27T06:52:54.740Z,3.34
2023-03-27T06:53:54.733Z,3.41
2023-03-27T06:54:54.727Z,3.44
2023-03-27T06:55:54.839Z,3.56
2023-03-27T06:56:54.727Z,3.57
2023-03-27T06:57:54.673Z,3.53
2023-03-27T06:58:54.680Z,3.50
2023-03-27T06:59:54.661Z,3.52
2023-03-27T07:00:54.634Z,3.57
2023-03-27T07:01:54.637Z,3.60
2023-03-27T07:02:54.625Z,3.57
2023-03-27T07:03:54.590Z,3.57
2023-03-27T07:05:04.339Z,3.54
2023-03-27T07:05:55.898Z,3.57
2023-03-27T07:06:54.767Z,3.64
2023-03-27T07:07:54.525Z,3.70
2023-03-27T07:08:54.570Z,3.70
2023-03-27T07:09:54.508Z,3.57
2023-03-27T07:11:54.564Z,3.53
2023-03-27T07:12:54.499Z,3.59
2023-03-27T07:13:54.472Z,3.63
2023-03-27T07:14:54.466Z,3.68
2023-03-27T07:15:54.479Z,3.72
2023-03-27T07:16:54.489Z,3.80
2023-03-27T07:17:54.677Z,3.78
2023-03-27T07:18:54.383Z,3.75
2023-03-27T07:19:54.378Z,3.78
2023-03-27T07:20:54.501Z,3.80
2023-03-27T07:21:54.384Z,3.74
2023-03-27T07:22:56.471Z,3.75
2023-03-27T07:23:54.323Z,3.82
2023-03-27T07:24:54.318Z,3.92
2023-03-27T07:25:54.538Z,4.00
2023-03-27T07:26:54.282Z,4.04
2023-03-27T07:27:54.265Z,3.98
2023-03-27T07:28:54.292Z,3.93
2023-03-27T07:29:54.480Z,3.89
2023-03-27T07:30:54.268Z,3.88
2023-03-27T07:31:57.859Z,3.90
2023-03-27T07:32:55.277Z,4.04
2023-03-27T07:33:54.299Z,4.04
2023-03-27T07:34:54.220Z,3.98
2023-03-27T07:35:54.275Z,3.90
2023-03-27T07:36:54.377Z,3.82
2023-03-27T07:37:54.129Z,3.88
2023-03-27T07:38:54.153Z,3.98
2023-03-27T07:39:54.119Z,4.11
2023-03-27T07:40:54.128Z,4.14
2023-03-27T07:41:54.123Z,4.08
2023-03-27T07:42:54.100Z,3.98
2023-03-27T07:43:54.058Z,3.82
2023-03-27T07:44:54.071Z,3.75
2023-03-27T07:45:54.084Z,3.63
2023-03-27T07:46:54.038Z,3.57
2023-03-27T07:47:54.134Z,3.60
2023-03-27T07:48:54.040Z,3.62
2023-03-27T07:49:53.980Z,3.74
2023-03-27T07:50:56.122Z,3.88
2023-03-27T07:51:53.981Z,4.00
2023-03-27T07:52:53.947Z,4.04
2023-03-27T07:53:53.938Z,3.96
2023-03-27T07:54:53.974Z,3.96
2023-03-27T07:55:53.970Z,4.02
2023-03-27T07:56:53.948Z,4.10
2023-03-27T07:58:01.292Z,4.13
2023-03-27T07:58:54.894Z,4.16
2023-03-27T07:59:53.902Z,4.17
2023-03-27T08:00:53.871Z,4.14
2023-03-27T08:01:53.855Z,4.10
2023-03-27T08:02:53.943Z,4.14
2023-03-27T08:03:53.972Z,4.18
2023-03-27T08:04:53.928Z,4.21
2023-03-27T08:05:53.795Z,4.18
2023-03-27T08:06:53.793Z,4.16
2023-03-27T08:07:53.796Z,4.11
2023-03-27T08:08:53.787Z,4.08
2023-03-27T08:09:53.738Z,4.06
2023-03-27T08:10:53.733Z,4.06
2023-03-27T08:11:53.774Z,4.07
2023-03-27T08:12:53.706Z,4.08
2023-03-27T08:13:53.683Z,4.14
2023-03-27T08:14:53.797Z,4.21
2023-03-27T08:15:53.657Z,4.26
2023-03-27T08:16:55.878Z,4.29
2023-03-27T08:17:55.554Z,4.32
2023-03-27T08:18:53.650Z,4.36
2023-03-27T08:19:53.643Z,4.34
2023-03-27T08:20:53.608Z,4.18
2023-03-27T08:21:53.578Z,4.14
2023-03-27T08:22:53.584Z,4.16
2023-03-27T08:23:54.445Z,4.14
2023-03-27T08:24:53.597Z,4.11
2023-03-27T08:25:53.588Z,4.14
2023-03-27T08:26:53.519Z,4.18
2023-03-27T08:27:53.504Z,4.24
2023-03-27T08:28:53.509Z,4.18
2023-03-27T08:29:53.494Z,4.25
2023-03-27T08:30:53.580Z,4.21
2023-03-27T08:31:54.497Z,4.29
2023-03-27T08:32:53.490Z,4.32
2023-03-27T08:33:53.428Z,4.31
2023-03-27T08:34:53.434Z,4.31
2023-03-27T08:35:53.421Z,4.14
2023-03-27T08:36:53.394Z,4.04
2023-03-27T08:37:53.377Z,3.96
2023-03-27T08:38:53.387Z,3.96
2023-03-27T08:39:53.360Z,3.92
2023-03-27T08:40:53.343Z,4.04
2023-03-27T08:41:53.341Z,4.17
2023-03-27T08:42:53.353Z,4.25
2023-03-27T08:43:53.308Z,4.34
2023-03-27T08:44:53.302Z,4.28
2023-03-27T08:45:53.299Z,4.35
2023-03-27T08:46:53.310Z,4.43
2023-03-27T08:47:53.318Z,4.54
2023-03-27T08:48:53.278Z,4.62
2023-03-27T08:49:53.244Z,4.59
2023-03-27T08:50:53.221Z,4.56
2023-03-27T08:51:53.210Z,4.49
2023-03-27T08:52:53.194Z,4.47
2023-03-27T08:53:53.214Z,4.47
2023-03-27T08:54:53.182Z,4.56
2023-03-27T08:55:53.151Z,4.64
2023-03-27T08:56:53.183Z,4.75
2023-03-27T08:57:53.139Z,4.86
2023-03-27T08:58:53.101Z,4.91
2023-03-27T08:59:53.122Z,4.79
2023-03-27T09:00:53.092Z,4.83
2023-03-27T09:01:53.148Z,4.91
2023-03-27T09:02:53.334Z,4.94
2023-03-27T09:03:53.274Z,5.01
2023-03-27T09:04:53.047Z,5.02
2023-03-27T09:05:53.030Z,5.14
2023-03-27T09:06:53.011Z,5.12
2023-03-27T09:07:53.016Z,4.79
2023-03-27T09:08:52.981Z,4.51
2023-03-27T09:09:53.017Z,4.49
2023-03-27T09:10:52.962Z,4.65
2023-03-27T09:11:53.020Z,4.74
2023-03-27T09:12:52.952Z,4.72
2023-03-27T09:13:52.927Z,4.65
2023-03-27T09:14:53.046Z,4.57
2023-03-27T09:15:52.976Z,4.54
2023-03-27T09:16:52.917Z,4.57
2023-03-27T09:17:52.990Z,4.64
2023-03-27T09:18:52.860Z,4.64
2023-03-27T09:19:52.867Z,4.53
2023-03-27T09:20:52.832Z,4.62
2023-03-27T09:21:52.829Z,4.65
2023-03-27T09:22:53.023Z,4.57
2023-03-27T09:23:52.797Z,4.51
2023-03-27T09:24:52.812Z,4.50
2023-03-27T09:25:53.369Z,4.54
2023-03-27T09:27:04.499Z,4.54
2023-03-27T09:27:53.758Z,4.62
2023-03-27T09:28:52.721Z,4.56
2023-03-27T09:29:52.744Z,4.54
2023-03-27T09:30:53.741Z,4.54
2023-03-27T09:31:52.755Z,4.72
2023-03-27T09:32:52.698Z,4.84
2023-03-27T09:33:52.695Z,5.04
2023-03-27T09:34:52.662Z,5.15
2023-03-27T09:35:52.744Z,5.19
2023-03-27T09:36:52.741Z,5.20
2023-03-27T09:37:52.623Z,5.32
2023-03-27T09:38:52.627Z,5.47
2023-03-27T09:39:52.681Z,5.59
2023-03-27T09:40:52.621Z,5.41
2023-03-27T09:41:52.582Z,5.26
2023-03-27T09:42:52.547Z,5.20
2023-03-27T09:43:52.578Z,5.19
2023-03-27T09:44:52.561Z,5.24
2023-03-27T09:45:52.553Z,5.26
2023-03-27T09:46:52.561Z,5.14
2023-03-27T09:47:52.555Z,5.04
2023-03-27T09:48:52.476Z,5.04
2023-03-27T09:49:52.492Z,5.01
2023-03-27T09:50:52.495Z,4.90
2023-03-27T09:51:52.449Z,4.77
2023-03-27T09:52:52.447Z,4.79
2023-03-27T09:53:52.431Z,4.75
2023-03-27T09:54:52.406Z,4.88
2023-03-27T09:55:52.410Z,5.08
2023-03-27T09:56:52.409Z,5.23
2023-03-27T09:57:52.385Z,5.24
2023-03-27T09:58:52.342Z,5.33
2023-03-27T09:59:52.388Z,5.40
2023-03-27T10:00:52.399Z,5.44
2023-03-27T10:01:52.317Z,5.29
2023-03-27T10:02:52.366Z,5.04
2023-03-27T10:03:52.399Z,5.04
2023-03-27T10:04:52.283Z,5.09
2023-03-27T10:05:52.292Z,5.20
2023-03-27T10:06:52.236Z,5.22
2023-03-27T10:07:52.237Z,5.24
2023-03-27T10:08:52.216Z,5.26
2023-03-27T10:09:52.222Z,5.26
2023-03-27T10:10:52.194Z,5.24
2023-03-27T10:11:52.197Z,5.40
2023-03-27T10:12:52.184Z,5.44
2023-03-27T10:13:52.216Z,5.40
2023-03-27T10:15:01.741Z,5.24
2023-03-27T10:15:52.169Z,5.14
2023-03-27T10:16:52.188Z,5.08
2023-03-27T10:17:52.185Z,5.23
2023-03-27T10:18:52.094Z,5.30
2023-03-27T10:19:52.155Z,5.35
2023-03-27T10:20:52.168Z,5.35
2023-03-27T10:21:52.094Z,5.24
2023-03-27T10:22:54.462Z,5.24
2023-03-27T10:23:52.029Z,5.27
2023-03-27T10:24:52.317Z,5.37
2023-03-27T10:25:52.057Z,5.47
2023-03-27T10:26:52.006Z,5.58
2023-03-27T10:27:51.990Z,5.67
2023-03-27T10:28:52.006Z,5.65
2023-03-27T10:29:51.979Z,5.55
2023-03-27T10:30:51.966Z,5.67
2023-03-27T10:31:52.013Z,5.78
2023-03-27T10:32:52.008Z,5.93
2023-03-27T10:33:51.935Z,5.96
2023-03-27T10:34:51.913Z,5.95
2023-03-27T10:35:51.960Z,5.87
2023-03-27T10:36:51.920Z,5.95
2023-03-27T10:37:51.990Z,6.01
2023-03-27T10:38:52.374Z,6.30
2023-03-27T10:39:51.836Z,6.42
2023-03-27T10:40:51.922Z,6.43
2023-03-27T10:41:51.840Z,6.33
2023-03-27T10:42:52.497Z,6.17
2023-03-27T10:43:52.230Z,6.06
2023-03-27T10:44:51.772Z,5.99
2023-03-27T10:45:51.895Z,5.96
2023-03-27T10:46:51.763Z,6.05
2023-03-27T10:47:51.802Z,6.01
2023-03-27T10:48:51.773Z,6.02
2023-03-27T10:49:51.765Z,5.90
2023-03-27T10:50:51.712Z,5.81
2023-03-27T10:51:51.756Z,5.74
2023-03-27T10:52:51.696Z,5.75
2023-03-27T10:53:51.785Z,5.78
2023-03-27T10:54:51.676Z,5.92
2023-03-27T10:55:51.744Z,5.96
2023-03-27T10:56:51.649Z,6.17
2023-03-27T10:57:51.622Z,6.36
2023-03-27T10:58:51.602Z,6.42
2023-03-27T10:59:51.657Z,6.58
2023-03-27T11:00:51.647Z,6.58
2023-03-27T11:01:51.585Z,6.48
2023-03-27T11:02:51.577Z,6.30
2023-03-27T11:03:51.600Z,6.24
2023-03-27T11:04:51.517Z,6.24
2023-03-27T11:05:51.523Z,6.19
2023-03-27T11:06:51.483Z,6.20
2023-03-27T11:07:51.543Z,6.28
2023-03-27T11:08:51.545Z,6.27
2023-03-27T11:09:51.445Z,6.21
2023-03-27T11:10:51.411Z,6.24
2023-03-27T11:11:51.432Z,6.25
2023-03-27T11:12:51.446Z,6.27
2023-03-27T11:13:51.415Z,6.21
2023-03-27T11:14:51.415Z,6.19
2023-03-27T11:15:51.406Z,6.16
2023-03-27T11:16:51.411Z,6.21
2023-03-27T11:17:51.423Z,6.32
2023-03-27T11:18:51.327Z,6.30
2023-03-27T11:19:51.330Z,6.45
2023-03-27T11:20:51.314Z,6.46
2023-03-27T11:21:51.294Z,6.57
2023-03-27T11:22:51.278Z,6.61
2023-03-27T11:23:51.404Z,6.72
2023-03-27T11:24:51.260Z,6.87
2023-03-27T11:25:51.317Z,6.86
2023-03-27T11:26:51.253Z,6.86
2023-03-27T11:27:51.238Z,6.69
2023-03-27T11:28:51.238Z,6.75
2023-03-27T11:29:51.241Z,6.82
2023-03-27T11:30:51.236Z,6.79
2023-03-27T11:31:51.289Z,6.81
2023-03-27T11:32:51.215Z,6.86
2023-03-27T11:33:51.162Z,6.68
2023-03-27T11:34:51.135Z,6.63
2023-03-27T11:35:51.178Z,6.58
2023-03-27T11:36:51.449Z,6.46
2023-03-27T11:37:51.126Z,6.42
2023-03-27T11:38:51.083Z,6.36
2023-03-27T11:39:51.179Z,6.33
2023-03-27T11:40:51.060Z,6.46
2023-03-27T11:41:51.046Z,6.68
2023-03-27T11:42:51.032Z,6.72
2023-03-27T11:43:51.058Z,6.72
2023-03-27T11:44:51.012Z,6.78
2023-03-27T11:45:51.019Z,6.87
2023-03-27T11:46:50.974Z,6.99
2023-03-27T11:47:51.003Z,7.08
2023-03-27T11:48:50.959Z,7.15
2023-03-27T11:49:51.000Z,7.15
2023-03-27T11:50:50.971Z,7.27
2023-03-27T11:51:50.917Z,7.34
2023-03-27T11:52:51.794Z,7.30
2023-03-27T11:53:50.904Z,7.09
2023-03-27T11:54:50.860Z,6.93
2023-03-27T11:55:50.846Z,6.71
2023-03-27T11:56:50.873Z,6.87
2023-03-27T11:57:50.858Z,7.11
2023-03-27T11:58:51.050Z,7.26
2023-03-27T11:59:50.790Z,7.32
2023-03-27T12:00:50.792Z,7.23
2023-03-27T12:01:50.813Z,7.30
2023-03-27T12:02:50.822Z,7.30
2023-03-27T12:03:50.869Z,7.33
2023-03-27T12:04:50.741Z,7.36
2023-03-27T12:05:50.748Z,7.30
2023-03-27T12:06:51.545Z,7.15
2023-03-27T12:07:50.710Z,7.04
2023-03-27T12:08:50.679Z,6.86
2023-03-27T12:09:50.676Z,6.63
2023-03-27T12:10:50.683Z,6.46
2023-03-27T12:11:50.684Z,6.45
2023-03-27T12:12:50.637Z,6.43
2023-03-27T12:14:00.472Z,6.45
2023-03-27T12:14:51.673Z,6.11
2023-03-27T12:15:50.595Z,5.67
2023-03-27T12:16:50.699Z,5.51
2023-03-27T12:17:50.664Z,5.48
2023-03-27T12:19:01.995Z,5.58
2023-03-27T12:19:51.651Z,5.60
2023-03-27T12:20:53.607Z,5.66
2023-03-27T12:21:50.527Z,5.55
2023-03-27T12:22:50.520Z,5.47
2023-03-27T12:23:50.471Z,5.45
2023-03-27T12:24:59.438Z,5.63
2023-03-27T12:25:51.495Z,5.78
2023-03-27T12:26:50.525Z,5.95
2023-03-27T12:27:50.404Z,5.95
2023-03-27T12:28:50.418Z,6.03
2023-03-27T12:29:50.454Z,6.19
2023-03-27T12:30:50.388Z,6.30
2023-03-27T12:31:50.509Z,6.46
2023-03-27T12:32:51.064Z,6.63
2023-03-27T12:33:50.489Z,6.71
2023-03-27T12:34:51.337Z,6.63
2023-03-27T12:35:50.491Z,6.71
2023-03-27T12:36:50.407Z,6.65
2023-03-27T12:37:50.336Z,6.68
2023-03-27T12:38:50.355Z,6.61
2023-03-27T12:39:51.911Z,6.61
2023-03-27T12:40:50.266Z,6.58
2023-03-27T12:41:50.266Z,6.64
2023-03-27T12:42:50.372Z,6.81
2023-03-27T12:43:50.233Z,6.90
2023-03-27T12:44:50.206Z,6.93
2023-03-27T12:45:53.400Z,7.00
2023-03-27T12:46:50.265Z,7.21
2023-03-27T12:47:50.206Z,7.32
2023-03-27T12:48:50.310Z,7.41
2023-03-27T12:49:50.212Z,7.48
2023-03-27T12:50:50.157Z,7.69
2023-03-27T12:51:50.133Z,7.77
2023-03-27T12:52:50.123Z,7.84
2023-03-27T12:53:50.101Z,7.81
2023-03-27T12:54:50.067Z,7.60
2023-03-27T12:55:50.074Z,7.36
2023-03-27T12:56:50.160Z,7.21
2023-03-27T12:57:50.173Z,7.11
2023-03-27T12:58:50.009Z,6.97
2023-03-27T12:59:50.016Z,6.87
2023-03-27T13:00:49.990Z,6.79
2023-03-27T13:01:52.702Z,6.82
2023-03-27T13:02:50.045Z,6.81
2023-03-27T13:03:50.146Z,6.76
2023-03-27T13:04:49.984Z,6.79
2023-03-27T13:05:49.939Z,6.75
2023-03-27T13:06:49.948Z,6.63
2023-03-27T13:07:49.967Z,6.35
2023-03-27T13:08:49.941Z,6.03
2023-03-27T13:09:49.905Z,5.90
2023-03-27T13:10:49.889Z,5.93
2023-03-27T13:11:49.890Z,5.95
2023-03-27T13:12:49.859Z,5.99
2023-03-27T13:13:49.844Z,6.10
2023-03-27T13:14:49.893Z,6.16
2023-03-27T13:15:49.797Z,6.25
2023-03-27T13:16:49.817Z,6.27
2023-03-27T13:17:49.846Z,6.32
2023-03-27T13:18:51.698Z,6.39
2023-03-27T13:19:49.729Z,6.53